sensor_id;sensor_type;location;lat;lon;timestamp;P1;durP1;ratioP1;P2;durP2;ratioP2
27313;SDS011;14800;48.174;9.798;2022-11-15T00:00:49;7.38;;;5.28;;
27313;SDS011;14800;48.174;9.798;2022-11-15T00:03:16;6.90;;;5.00;;
27313;SDS011;14800;48.174;9.798;2022-11-15T00:05:45;7.53;;;5.18;;
27313;SDS011;14800;48.174;9.798;2022-11-15T00:08:11;6.07;;;4.70;;
27313;SDS011;14800;48.174;9.798;2022-11-15T00:10:37;7.50;;;5.30;;
27313;SDS011;14800;48.174;9.798;2022-11-15T00:13:09;6.60;;;5.13;;
27313;SDS011;14800;48.174;9.798;2022-11-15T00:15:40;7.78;;;4.95;;
27313;SDS011;14800;48.174;9.798;2022-11-15T00:18:09;8.00;;;5.20;;
27313;SDS011;14800;48.174;9.798;2022-11-15T00:20:40;7.30;;;5.05;;
27313;SDS011;14800;48.174;9.798;2022-11-15T00:23:06;6.95;;;5.13;;
27313;SDS011;14800;48.174;9.798;2022-11-15T00:25:32;7.53;;;5.20;;
27313;SDS011;14800;48.174;9.798;2022-11-15T00:27:58;6.30;;;4.97;;
27313;SDS011;14800;48.174;9.798;2022-11-15T00:30:25;7.10;;;5.05;;
27313;SDS011;14800;48.174;9.798;2022-11-15T00:32:51;8.23;;;4.85;;
27313;SDS011;14800;48.174;9.798;2022-11-15T00:35:17;6.28;;;4.85;;
27313;SDS011;14800;48.174;9.798;2022-11-15T00:37:43;6.78;;;4.88;;
27313;SDS011;14800;48.174;9.798;2022-11-15T00:40:09;7.38;;;4.85;;
27313;SDS011;14800;48.174;9.798;2022-11-15T00:42:35;5.88;;;4.85;;
27313;SDS011;14800;48.174;9.798;2022-11-15T00:45:00;6.20;;;4.80;;
27313;SDS011;14800;48.174;9.798;2022-11-15T00:47:26;8.05;;;5.35;;
27313;SDS011;14800;48.174;9.798;2022-11-15T00:49:52;7.40;;;4.80;;
27313;SDS011;14800;48.174;9.798;2022-11-15T00:52:17;8.43;;;4.97;;
27313;SDS011;14800;48.174;9.798;2022-11-15T00:54:43;6.63;;;5.00;;
27313;SDS011;14800;48.174;9.798;2022-11-15T00:57:08;6.28;;;4.55;;
27313;SDS011;14800;48.174;9.798;2022-11-15T00:59:34;7.93;;;4.95;;
27313;SDS011;14800;48.174;9.798;2022-11-15T01:02:00;9.55;;;5.10;;
27313;SDS011;14800;48.174;9.798;2022-11-15T01:04:26;8.95;;;5.30;;
27313;SDS011;14800;48.174;9.798;2022-11-15T01:06:51;10.15;;;5.47;;
27313;SDS011;14800;48.174;9.798;2022-11-15T01:09:17;10.35;;;5.70;;
27313;SDS011;14800;48.174;9.798;2022-11-15T01:11:43;10.73;;;7.00;;
27313;SDS011;14800;48.174;9.798;2022-11-15T01:14:08;11.02;;;6.93;;
27313;SDS011;14800;48.174;9.798;2022-11-15T01:16:34;10.70;;;6.22;;
27313;SDS011;14800;48.174;9.798;2022-11-15T01:18:59;9.13;;;6.20;;
27313;SDS011;14800;48.174;9.798;2022-11-15T01:21:25;10.32;;;6.22;;
27313;SDS011;14800;48.174;9.798;2022-11-15T01:23:54;9.95;;;6.25;;
27313;SDS011;14800;48.174;9.798;2022-11-15T01:26:20;7.97;;;5.80;;
27313;SDS011;14800;48.174;9.798;2022-11-15T01:28:46;7.47;;;5.45;;
27313;SDS011;14800;48.174;9.798;2022-11-15T01:31:13;8.10;;;5.57;;
27313;SDS011;14800;48.174;9.798;2022-11-15T01:33:41;9.38;;;5.10;;
27313;SDS011;14800;48.174;9.798;2022-11-15T01:36:08;6.90;;;5.20;;
27313;SDS011;14800;48.174;9.798;2022-11-15T01:38:37;6.88;;;5.13;;
27313;SDS011;14800;48.174;9.798;2022-11-15T01:41:03;7.80;;;5.03;;
27313;SDS011;14800;48.174;9.798;2022-11-15T01:43:30;9.27;;;5.13;;
27313;SDS011;14800;48.174;9.798;2022-11-15T01:46:04;7.75;;;5.55;;
27313;SDS011;14800;48.174;9.798;2022-11-15T01:48:39;7.15;;;5.10;;
27313;SDS011;14800;48.174;9.798;2022-11-15T01:51:06;7.07;;;5.53;;
27313;SDS011;14800;48.174;9.798;2022-11-15T01:53:35;9.38;;;6.00;;
27313;SDS011;14800;48.174;9.798;2022-11-15T01:56:06;6.57;;;5.15;;
27313;SDS011;14800;48.174;9.798;2022-11-15T01:58:35;7.80;;;5.00;;
27313;SDS011;14800;48.174;9.798;2022-11-15T02:01:01;10.40;;;5.47;;
27313;SDS011;14800;48.174;9.798;2022-11-15T02:03:30;6.93;;;4.78;;
27313;SDS011;14800;48.174;9.798;2022-11-15T02:06:18;6.25;;;4.70;;
27313;SDS011;14800;48.174;9.798;2022-11-15T02:08:46;7.55;;;4.25;;
27313;SDS011;14800;48.174;9.798;2022-11-15T02:11:12;8.93;;;4.65;;
27313;SDS011;14800;48.174;9.798;2022-11-15T02:13:38;6.43;;;4.10;;
27313;SDS011;14800;48.174;9.798;2022-11-15T02:16:10;5.07;;;3.65;;
27313;SDS011;14800;48.174;9.798;2022-11-15T02:21:48;4.55;;;3.30;;
27313;SDS011;14800;48.174;9.798;2022-11-15T02:24:28;6.03;;;3.58;;
27313;SDS011;14800;48.174;9.798;2022-11-15T02:30:10;7.18;;;3.20;;
27313;SDS011;14800;48.174;9.798;2022-11-15T02:43:22;8.40;;;4.30;;
27313;SDS011;14800;48.174;9.798;2022-11-15T02:46:21;6.93;;;4.65;;
27313;SDS011;14800;48.174;9.798;2022-11-15T02:49:16;7.93;;;4.35;;
27313;SDS011;14800;48.174;9.798;2022-11-15T02:51:43;7.65;;;4.50;;
27313;SDS011;14800;48.174;9.798;2022-11-15T02:54:12;6.78;;;4.50;;
27313;SDS011;14800;48.174;9.798;2022-11-15T02:56:41;5.25;;;4.00;;
27313;SDS011;14800;48.174;9.798;2022-11-15T02:59:13;5.53;;;3.53;;
27313;SDS011;14800;48.174;9.798;2022-11-15T03:01:56;7.97;;;3.85;;
27313;SDS011;14800;48.174;9.798;2022-11-15T03:07:07;5.53;;;3.40;;
27313;SDS011;14800;48.174;9.798;2022-11-15T03:09:42;4.57;;;3.28;;
27313;SDS011;14800;48.174;9.798;2022-11-15T03:14:51;4.47;;;3.25;;
27313;SDS011;14800;48.174;9.798;2022-11-15T03:17:45;4.45;;;3.40;;
27313;SDS011;14800;48.174;9.798;2022-11-15T03:20:20;4.60;;;3.97;;
27313;SDS011;14800;48.174;9.798;2022-11-15T03:22:46;7.32;;;3.47;;
27313;SDS011;14800;48.174;9.798;2022-11-15T03:25:17;3.80;;;3.00;;
27313;SDS011;14800;48.174;9.798;2022-11-15T03:30:17;4.78;;;3.28;;
27313;SDS011;14800;48.174;9.798;2022-11-15T03:32:45;3.72;;;3.38;;
27313;SDS011;14800;48.174;9.798;2022-11-15T03:35:14;4.63;;;3.47;;
27313;SDS011;14800;48.174;9.798;2022-11-15T03:37:51;4.68;;;3.40;;
27313;SDS011;14800;48.174;9.798;2022-11-15T03:40:34;5.22;;;3.78;;
27313;SDS011;14800;48.174;9.798;2022-11-15T03:43:07;4.85;;;3.30;;
27313;SDS011;14800;48.174;9.798;2022-11-15T03:45:50;4.15;;;3.30;;
27313;SDS011;14800;48.174;9.798;2022-11-15T03:48:21;4.10;;;3.00;;
27313;SDS011;14800;48.174;9.798;2022-11-15T03:50:51;4.03;;;3.47;;
27313;SDS011;14800;48.174;9.798;2022-11-15T03:53:18;4.47;;;3.35;;
27313;SDS011;14800;48.174;9.798;2022-11-15T03:55:43;3.90;;;3.20;;
27313;SDS011;14800;48.174;9.798;2022-11-15T03:58:09;5.60;;;3.40;;
27313;SDS011;14800;48.174;9.798;2022-11-15T04:00:35;7.35;;;3.75;;
27313;SDS011;14800;48.174;9.798;2022-11-15T04:03:01;4.55;;;3.67;;
27313;SDS011;14800;48.174;9.798;2022-11-15T04:05:26;5.63;;;4.00;;
27313;SDS011;14800;48.174;9.798;2022-11-15T04:07:52;4.38;;;3.78;;
27313;SDS011;14800;48.174;9.798;2022-11-15T04:10:17;4.85;;;3.67;;
27313;SDS011;14800;48.174;9.798;2022-11-15T04:12:44;3.92;;;3.50;;
27313;SDS011;14800;48.174;9.798;2022-11-15T04:15:13;4.05;;;3.65;;
27313;SDS011;14800;48.174;9.798;2022-11-15T04:17:42;3.55;;;3.00;;
27313;SDS011;14800;48.174;9.798;2022-11-15T04:22:59;3.53;;;3.10;;
27313;SDS011;14800;48.174;9.798;2022-11-15T04:25:45;7.40;;;3.47;;
27313;SDS011;14800;48.174;9.798;2022-11-15T04:28:14;7.07;;;3.97;;
27313;SDS011;14800;48.174;9.798;2022-11-15T04:30:40;7.22;;;3.67;;
27313;SDS011;14800;48.174;9.798;2022-11-15T04:33:05;5.88;;;3.55;;
27313;SDS011;14800;48.174;9.798;2022-11-15T04:35:31;8.27;;;4.70;;
27313;SDS011;14800;48.174;9.798;2022-11-15T04:37:57;5.85;;;3.90;;
27313;SDS011;14800;48.174;9.798;2022-11-15T04:40:23;6.75;;;4.22;;
27313;SDS011;14800;48.174;9.798;2022-11-15T04:42:49;14.73;;;8.90;;
27313;SDS011;14800;48.174;9.798;2022-11-15T04:45:15;8.02;;;5.65;;
27313;SDS011;14800;48.174;9.798;2022-11-15T04:47:42;7.78;;;4.53;;
27313;SDS011;14800;48.174;9.798;2022-11-15T04:50:10;7.18;;;4.65;;
27313;SDS011;14800;48.174;9.798;2022-11-15T04:52:38;4.70;;;4.13;;
27313;SDS011;14800;48.174;9.798;2022-11-15T04:55:05;6.82;;;3.92;;
27313;SDS011;14800;48.174;9.798;2022-11-15T04:57:31;10.90;;;4.03;;
27313;SDS011;14800;48.174;9.798;2022-11-15T04:59:56;6.72;;;4.78;;
27313;SDS011;14800;48.174;9.798;2022-11-15T05:02:22;7.55;;;5.15;;
27313;SDS011;14800;48.174;9.798;2022-11-15T05:04:47;8.30;;;6.30;;
27313;SDS011;14800;48.174;9.798;2022-11-15T05:07:13;9.98;;;6.07;;
27313;SDS011;14800;48.174;9.798;2022-11-15T05:09:38;8.40;;;6.45;;
27313;SDS011;14800;48.174;9.798;2022-11-15T05:12:04;9.52;;;6.60;;
27313;SDS011;14800;48.174;9.798;2022-11-15T05:14:30;9.57;;;6.28;;
27313;SDS011;14800;48.174;9.798;2022-11-15T05:16:55;10.35;;;6.80;;
27313;SDS011;14800;48.174;9.798;2022-11-15T05:19:21;11.75;;;6.55;;
27313;SDS011;14800;48.174;9.798;2022-11-15T05:21:46;10.63;;;6.20;;
27313;SDS011;14800;48.174;9.798;2022-11-15T05:24:12;12.63;;;6.05;;
27313;SDS011;14800;48.174;9.798;2022-11-15T05:26:37;10.20;;;5.63;;
27313;SDS011;14800;48.174;9.798;2022-11-15T05:29:03;9.93;;;5.32;;
27313;SDS011;14800;48.174;9.798;2022-11-15T05:31:29;9.55;;;5.13;;
27313;SDS011;14800;48.174;9.798;2022-11-15T05:33:55;13.30;;;4.80;;
27313;SDS011;14800;48.174;9.798;2022-11-15T05:38:54;6.68;;;4.22;;
27313;SDS011;14800;48.174;9.798;2022-11-15T05:41:20;8.35;;;4.88;;
27313;SDS011;14800;48.174;9.798;2022-11-15T05:43:50;7.88;;;5.05;;
27313;SDS011;14800;48.174;9.798;2022-11-15T05:46:17;8.73;;;4.78;;
27313;SDS011;14800;48.174;9.798;2022-11-15T05:48:44;7.75;;;4.90;;
27313;SDS011;14800;48.174;9.798;2022-11-15T05:51:12;9.52;;;5.22;;
27313;SDS011;14800;48.174;9.798;2022-11-15T05:53:40;9.25;;;5.95;;
27313;SDS011;14800;48.174;9.798;2022-11-15T05:56:06;9.07;;;5.70;;
27313;SDS011;14800;48.174;9.798;2022-11-15T05:58:33;9.23;;;6.50;;
27313;SDS011;14800;48.174;9.798;2022-11-15T06:00:59;11.40;;;7.05;;
27313;SDS011;14800;48.174;9.798;2022-11-15T06:03:25;24.27;;;12.57;;
27313;SDS011;14800;48.174;9.798;2022-11-15T06:05:51;10.52;;;6.97;;
27313;SDS011;14800;48.174;9.798;2022-11-15T06:08:16;8.48;;;5.82;;
27313;SDS011;14800;48.174;9.798;2022-11-15T06:10:42;8.80;;;5.53;;
27313;SDS011;14800;48.174;9.798;2022-11-15T06:13:07;11.77;;;5.88;;
27313;SDS011;14800;48.174;9.798;2022-11-15T06:15:33;7.82;;;5.70;;
27313;SDS011;14800;48.174;9.798;2022-11-15T06:17:59;9.65;;;6.03;;
27313;SDS011;14800;48.174;9.798;2022-11-15T06:20:25;8.95;;;6.75;;
27313;SDS011;14800;48.174;9.798;2022-11-15T06:22:56;11.43;;;6.30;;
27313;SDS011;14800;48.174;9.798;2022-11-15T06:25:25;11.98;;;6.97;;
27313;SDS011;14800;48.174;9.798;2022-11-15T06:27:52;10.73;;;6.45;;
27313;SDS011;14800;48.174;9.798;2022-11-15T06:30:18;9.82;;;6.57;;
27313;SDS011;14800;48.174;9.798;2022-11-15T06:32:45;14.32;;;7.05;;
27313;SDS011;14800;48.174;9.798;2022-11-15T06:35:10;12.57;;;7.00;;
27313;SDS011;14800;48.174;9.798;2022-11-15T06:37:36;9.88;;;6.68;;
27313;SDS011;14800;48.174;9.798;2022-11-15T06:40:02;10.55;;;6.50;;
27313;SDS011;14800;48.174;9.798;2022-11-15T06:42:28;13.45;;;6.50;;
27313;SDS011;14800;48.174;9.798;2022-11-15T06:44:53;8.73;;;6.22;;
27313;SDS011;14800;48.174;9.798;2022-11-15T06:47:19;16.40;;;7.03;;
27313;SDS011;14800;48.174;9.798;2022-11-15T06:49:44;45.17;;;8.98;;
27313;SDS011;14800;48.174;9.798;2022-11-15T06:52:10;14.10;;;8.02;;
27313;SDS011;14800;48.174;9.798;2022-11-15T06:54:35;13.63;;;7.10;;
27313;SDS011;14800;48.174;9.798;2022-11-15T06:57:01;14.80;;;7.75;;
27313;SDS011;14800;48.174;9.798;2022-11-15T06:59:28;26.42;;;7.10;;
27313;SDS011;14800;48.174;9.798;2022-11-15T07:01:54;29.52;;;6.72;;
27313;SDS011;14800;48.174;9.798;2022-11-15T07:04:19;60.97;;;7.50;;
27313;SDS011;14800;48.174;9.798;2022-11-15T07:06:48;67.22;;;9.63;;
27313;SDS011;14800;48.174;9.798;2022-11-15T07:09:13;47.92;;;8.48;;
27313;SDS011;14800;48.174;9.798;2022-11-15T07:11:39;43.20;;;7.97;;
27313;SDS011;14800;48.174;9.798;2022-11-15T07:14:05;36.80;;;6.43;;
27313;SDS011;14800;48.174;9.798;2022-11-15T07:16:31;54.88;;;8.27;;
27313;SDS011;14800;48.174;9.798;2022-11-15T07:18:56;60.45;;;7.95;;
27313;SDS011;14800;48.174;9.798;2022-11-15T07:21:22;90.75;;;8.63;;
27313;SDS011;14800;48.174;9.798;2022-11-15T07:23:48;120.07;;;9.23;;
27313;SDS011;14800;48.174;9.798;2022-11-15T07:26:14;150.20;;;9.60;;
27313;SDS011;14800;48.174;9.798;2022-11-15T07:28:39;163.05;;;10.23;;
27313;SDS011;14800;48.174;9.798;2022-11-15T07:31:05;115.53;;;8.63;;
27313;SDS011;14800;48.174;9.798;2022-11-15T07:33:32;111.25;;;8.13;;
27313;SDS011;14800;48.174;9.798;2022-11-15T07:36:02;81.13;;;9.32;;
27313;SDS011;14800;48.174;9.798;2022-11-15T07:38:30;105.63;;;8.65;;
27313;SDS011;14800;48.174;9.798;2022-11-15T07:40:56;71.05;;;7.90;;
27313;SDS011;14800;48.174;9.798;2022-11-15T07:43:23;92.70;;;8.18;;
27313;SDS011;14800;48.174;9.798;2022-11-15T07:45:49;82.57;;;7.45;;
27313;SDS011;14800;48.174;9.798;2022-11-15T07:48:15;51.25;;;9.18;;
27313;SDS011;14800;48.174;9.798;2022-11-15T07:50:41;52.90;;;7.82;;
27313;SDS011;14800;48.174;9.798;2022-11-15T07:53:07;60.28;;;8.82;;
27313;SDS011;14800;48.174;9.798;2022-11-15T07:55:34;32.20;;;8.30;;
27313;SDS011;14800;48.174;9.798;2022-11-15T07:58:00;77.95;;;7.90;;
27313;SDS011;14800;48.174;9.798;2022-11-15T08:00:36;17.95;;;7.50;;
27313;SDS011;14800;48.174;9.798;2022-11-15T08:03:09;41.17;;;7.30;;
27313;SDS011;14800;48.174;9.798;2022-11-15T08:05:39;32.17;;;6.18;;
27313;SDS011;14800;48.174;9.798;2022-11-15T08:08:07;36.85;;;6.32;;
27313;SDS011;14800;48.174;9.798;2022-11-15T08:10:33;56.85;;;6.88;;
27313;SDS011;14800;48.174;9.798;2022-11-15T08:15:26;48.53;;;6.43;;
27313;SDS011;14800;48.174;9.798;2022-11-15T08:17:59;24.25;;;6.40;;
27313;SDS011;14800;48.174;9.798;2022-11-15T08:20:26;23.33;;;6.75;;
27313;SDS011;14800;48.174;9.798;2022-11-15T08:22:55;9.80;;;5.30;;
27313;SDS011;14800;48.174;9.798;2022-11-15T08:25:24;49.42;;;6.00;;
27313;SDS011;14800;48.174;9.798;2022-11-15T08:27:54;20.83;;;5.85;;
27313;SDS011;14800;48.174;9.798;2022-11-15T08:30:24;52.17;;;6.07;;
27313;SDS011;14800;48.174;9.798;2022-11-15T08:32:50;67.57;;;6.32;;
27313;SDS011;14800;48.174;9.798;2022-11-15T08:35:17;84.68;;;6.20;;
27313;SDS011;14800;48.174;9.798;2022-11-15T08:37:43;14.82;;;5.22;;
27313;SDS011;14800;48.174;9.798;2022-11-15T08:40:09;51.65;;;7.30;;
27313;SDS011;14800;48.174;9.798;2022-11-15T08:42:35;29.38;;;6.47;;
27313;SDS011;14800;48.174;9.798;2022-11-15T08:45:00;105.68;;;7.82;;
27313;SDS011;14800;48.174;9.798;2022-11-15T08:47:26;22.08;;;6.25;;
27313;SDS011;14800;48.174;9.798;2022-11-15T08:49:52;31.10;;;6.28;;
27313;SDS011;14800;48.174;9.798;2022-11-15T08:52:18;34.80;;;6.28;;
27313;SDS011;14800;48.174;9.798;2022-11-15T08:54:44;16.98;;;6.53;;
27313;SDS011;14800;48.174;9.798;2022-11-15T08:57:09;9.80;;;6.18;;
27313;SDS011;14800;48.174;9.798;2022-11-15T08:59:35;9.10;;;5.47;;
27313;SDS011;14800;48.174;9.798;2022-11-15T09:02:01;10.02;;;6.00;;
27313;SDS011;14800;48.174;9.798;2022-11-15T09:04:27;7.85;;;6.18;;
27313;SDS011;14800;48.174;9.798;2022-11-15T09:06:53;8.98;;;6.35;;
27313;SDS011;14800;48.174;9.798;2022-11-15T09:09:18;7.07;;;6.10;;
27313;SDS011;14800;48.174;9.798;2022-11-15T09:11:44;17.70;;;6.75;;
27313;SDS011;14800;48.174;9.798;2022-11-15T09:14:10;23.17;;;8.23;;
27313;SDS011;14800;48.174;9.798;2022-11-15T09:16:37;10.65;;;7.57;;
27313;SDS011;14800;48.174;9.798;2022-11-15T09:19:02;10.45;;;7.43;;
27313;SDS011;14800;48.174;9.798;2022-11-15T09:21:28;12.73;;;8.43;;
27313;SDS011;14800;48.174;9.798;2022-11-15T09:23:54;12.00;;;8.50;;
27313;SDS011;14800;48.174;9.798;2022-11-15T09:26:20;10.00;;;7.75;;
27313;SDS011;14800;48.174;9.798;2022-11-15T09:28:46;10.68;;;7.78;;
27313;SDS011;14800;48.174;9.798;2022-11-15T09:31:11;15.10;;;8.40;;
27313;SDS011;14800;48.174;9.798;2022-11-15T09:33:37;11.55;;;8.57;;
27313;SDS011;14800;48.174;9.798;2022-11-15T09:36:03;9.98;;;8.05;;
27313;SDS011;14800;48.174;9.798;2022-11-15T09:38:31;10.50;;;8.27;;
27313;SDS011;14800;48.174;9.798;2022-11-15T09:43:52;11.95;;;8.75;;
27313;SDS011;14800;48.174;9.798;2022-11-15T09:49:11;11.20;;;8.45;;
27313;SDS011;14800;48.174;9.798;2022-11-15T09:51:41;10.27;;;8.00;;
27313;SDS011;14800;48.174;9.798;2022-11-15T09:57:11;12.43;;;9.55;;
27313;SDS011;14800;48.174;9.798;2022-11-15T10:04:55;11.70;;;8.80;;
27313;SDS011;14800;48.174;9.798;2022-11-15T10:07:27;13.55;;;8.35;;
27313;SDS011;14800;48.174;9.798;2022-11-15T10:10:11;11.35;;;8.93;;
27313;SDS011;14800;48.174;9.798;2022-11-15T10:12:45;13.80;;;8.55;;
27313;SDS011;14800;48.174;9.798;2022-11-15T10:15:15;9.80;;;8.05;;
27313;SDS011;14800;48.174;9.798;2022-11-15T10:23:38;9.80;;;8.13;;
27313;SDS011;14800;48.174;9.798;2022-11-15T10:26:04;10.73;;;8.88;;
27313;SDS011;14800;48.174;9.798;2022-11-15T10:28:34;14.57;;;8.30;;
27313;SDS011;14800;48.174;9.798;2022-11-15T10:31:00;14.52;;;8.65;;
27313;SDS011;14800;48.174;9.798;2022-11-15T10:36:21;12.48;;;9.23;;
27313;SDS011;14800;48.174;9.798;2022-11-15T10:46:31;10.95;;;8.45;;
27313;SDS011;14800;48.174;9.798;2022-11-15T10:49:20;11.30;;;9.00;;
27313;SDS011;14800;48.174;9.798;2022-11-15T10:51:57;12.03;;;8.97;;
27313;SDS011;14800;48.174;9.798;2022-11-15T10:54:41;14.88;;;8.95;;
27313;SDS011;14800;48.174;9.798;2022-11-15T10:57:10;15.13;;;9.40;;
27313;SDS011;14800;48.174;9.798;2022-11-15T10:59:39;13.50;;;10.32;;
27313;SDS011;14800;48.174;9.798;2022-11-15T11:04:56;15.32;;;9.60;;
27313;SDS011;14800;48.174;9.798;2022-11-15T11:07:24;13.65;;;10.70;;
27313;SDS011;14800;48.174;9.798;2022-11-15T11:10:02;10.32;;;8.10;;
27313;SDS011;14800;48.174;9.798;2022-11-15T11:12:41;8.93;;;7.18;;
27313;SDS011;14800;48.174;9.798;2022-11-15T11:15:11;8.80;;;7.13;;
27313;SDS011;14800;48.174;9.798;2022-11-15T11:25:51;9.48;;;7.53;;
27313;SDS011;14800;48.174;9.798;2022-11-15T11:35:30;9.73;;;6.70;;
27313;SDS011;14800;48.174;9.798;2022-11-15T11:37:28;8.88;;;6.90;;
27313;SDS011;14800;48.174;9.798;2022-11-15T11:40:00;9.80;;;6.40;;
27313;SDS011;14800;48.174;9.798;2022-11-15T11:45:47;7.25;;;6.28;;
27313;SDS011;14800;48.174;9.798;2022-11-15T11:51:27;7.60;;;6.22;;
27313;SDS011;14800;48.174;9.798;2022-11-15T11:54:03;8.70;;;6.65;;
27313;SDS011;14800;48.174;9.798;2022-11-15T11:56:37;7.85;;;5.93;;
27313;SDS011;14800;48.174;9.798;2022-11-15T12:01:48;10.07;;;5.75;;
27313;SDS011;14800;48.174;9.798;2022-11-15T12:10:26;9.13;;;7.03;;
27313;SDS011;14800;48.174;9.798;2022-11-15T12:13:01;8.80;;;6.70;;
27313;SDS011;14800;48.174;9.798;2022-11-15T12:15:42;9.65;;;7.20;;
27313;SDS011;14800;48.174;9.798;2022-11-15T12:18:12;9.00;;;6.50;;
27313;SDS011;14800;48.174;9.798;2022-11-15T12:20:41;8.23;;;6.25;;
27313;SDS011;14800;48.174;9.798;2022-11-15T12:23:27;9.95;;;6.30;;
27313;SDS011;14800;48.174;9.798;2022-11-15T12:28:37;10.45;;;5.85;;
27313;SDS011;14800;48.174;9.798;2022-11-15T12:31:11;8.18;;;6.18;;
27313;SDS011;14800;48.174;9.798;2022-11-15T12:33:39;7.28;;;5.57;;
27313;SDS011;14800;48.174;9.798;2022-11-15T12:36:11;7.82;;;5.70;;
27313;SDS011;14800;48.174;9.798;2022-11-15T12:38:58;6.93;;;5.40;;
27313;SDS011;14800;48.174;9.798;2022-11-15T12:41:28;8.85;;;4.93;;
27313;SDS011;14800;48.174;9.798;2022-11-15T12:43:55;5.35;;;4.70;;
27313;SDS011;14800;48.174;9.798;2022-11-15T12:48:57;4.63;;;4.10;;
27313;SDS011;14800;48.174;9.798;2022-11-15T13:25:26;20.42;;;12.15;;
27313;SDS011;14800;48.174;9.798;2022-11-15T13:31:00;24.80;;;17.17;;
27313;SDS011;14800;48.174;9.798;2022-11-15T13:33:46;9.90;;;7.00;;
27313;SDS011;14800;48.174;9.798;2022-11-15T13:36:13;7.03;;;3.90;;
27313;SDS011;14800;48.174;9.798;2022-11-15T13:38:43;6.40;;;4.70;;
27313;SDS011;14800;48.174;9.798;2022-11-15T13:41:28;9.40;;;4.00;;
27313;SDS011;14800;48.174;9.798;2022-11-15T13:43:56;5.47;;;3.83;;
27313;SDS011;14800;48.174;9.798;2022-11-15T13:46:23;5.47;;;4.00;;
27313;SDS011;14800;48.174;9.798;2022-11-15T13:51:36;7.25;;;5.70;;
27313;SDS011;14800;48.174;9.798;2022-11-15T13:56:59;12.13;;;6.00;;
27313;SDS011;14800;48.174;9.798;2022-11-15T13:59:27;6.10;;;5.30;;
27313;SDS011;14800;48.174;9.798;2022-11-15T14:01:56;9.63;;;6.90;;
27313;SDS011;14800;48.174;9.798;2022-11-15T14:04:26;8.93;;;6.90;;
27313;SDS011;14800;48.174;9.798;2022-11-15T14:06:59;9.45;;;6.60;;
27313;SDS011;14800;48.174;9.798;2022-11-15T14:11:56;9.75;;;6.30;;
27313;SDS011;14800;48.174;9.798;2022-11-15T14:14:25;9.40;;;5.70;;
27313;SDS011;14800;48.174;9.798;2022-11-15T14:16:53;6.50;;;5.10;;
27313;SDS011;14800;48.174;9.798;2022-11-15T14:24:32;9.63;;;6.50;;
27313;SDS011;14800;48.174;9.798;2022-11-15T14:27:15;7.32;;;5.50;;
27313;SDS011;14800;48.174;9.798;2022-11-15T14:29:44;7.45;;;5.53;;
27313;SDS011;14800;48.174;9.798;2022-11-15T14:32:23;10.30;;;6.05;;
27313;SDS011;14800;48.174;9.798;2022-11-15T14:34:55;7.25;;;5.13;;
27313;SDS011;14800;48.174;9.798;2022-11-15T14:37:26;8.68;;;5.15;;
27313;SDS011;14800;48.174;9.798;2022-11-15T14:39:56;8.13;;;5.53;;
27313;SDS011;14800;48.174;9.798;2022-11-15T14:42:22;7.10;;;5.00;;
27313;SDS011;14800;48.174;9.798;2022-11-15T14:44:48;7.78;;;5.20;;
27313;SDS011;14800;48.174;9.798;2022-11-15T14:47:14;6.47;;;4.90;;
27313;SDS011;14800;48.174;9.798;2022-11-15T14:49:40;9.20;;;6.20;;
27313;SDS011;14800;48.174;9.798;2022-11-15T14:52:16;7.07;;;5.70;;
27313;SDS011;14800;48.174;9.798;2022-11-15T14:54:47;8.73;;;5.22;;
27313;SDS011;14800;48.174;9.798;2022-11-15T14:57:13;7.38;;;5.15;;
27313;SDS011;14800;48.174;9.798;2022-11-15T14:59:38;7.05;;;5.63;;
27313;SDS011;14800;48.174;9.798;2022-11-15T15:02:09;5.97;;;5.28;;
27313;SDS011;14800;48.174;9.798;2022-11-15T15:04:40;7.63;;;5.50;;
27313;SDS011;14800;48.174;9.798;2022-11-15T15:07:06;7.25;;;5.03;;
27313;SDS011;14800;48.174;9.798;2022-11-15T15:09:32;7.60;;;5.22;;
27313;SDS011;14800;48.174;9.798;2022-11-15T15:11:57;5.35;;;4.68;;
27313;SDS011;14800;48.174;9.798;2022-11-15T15:14:23;6.32;;;4.75;;
27313;SDS011;14800;48.174;9.798;2022-11-15T15:16:48;12.30;;;5.45;;
27313;SDS011;14800;48.174;9.798;2022-11-15T15:19:14;7.45;;;5.85;;
27313;SDS011;14800;48.174;9.798;2022-11-15T15:21:39;9.13;;;5.95;;
27313;SDS011;14800;48.174;9.798;2022-11-15T15:24:05;8.20;;;5.75;;
27313;SDS011;14800;48.174;9.798;2022-11-15T15:26:30;6.57;;;5.78;;
27313;SDS011;14800;48.174;9.798;2022-11-15T15:29:01;7.03;;;4.78;;
27313;SDS011;14800;48.174;9.798;2022-11-15T15:31:26;7.32;;;5.00;;
27313;SDS011;14800;48.174;9.798;2022-11-15T15:33:52;8.65;;;4.97;;
27313;SDS011;14800;48.174;9.798;2022-11-15T15:36:18;7.00;;;5.78;;
27313;SDS011;14800;48.174;9.798;2022-11-15T15:38:44;10.55;;;7.95;;
27313;SDS011;14800;48.174;9.798;2022-11-15T15:41:11;12.75;;;8.45;;
27313;SDS011;14800;48.174;9.798;2022-11-15T15:43:38;11.20;;;6.47;;
27313;SDS011;14800;48.174;9.798;2022-11-15T15:46:04;7.68;;;5.93;;
27313;SDS011;14800;48.174;9.798;2022-11-15T15:48:33;9.77;;;5.82;;
27313;SDS011;14800;48.174;9.798;2022-11-15T15:51:02;6.70;;;5.97;;
27313;SDS011;14800;48.174;9.798;2022-11-15T15:53:27;6.97;;;6.20;;
27313;SDS011;14800;48.174;9.798;2022-11-15T15:55:53;8.60;;;6.55;;
27313;SDS011;14800;48.174;9.798;2022-11-15T15:58:19;6.95;;;6.13;;
27313;SDS011;14800;48.174;9.798;2022-11-15T16:00:45;8.93;;;6.10;;
27313;SDS011;14800;48.174;9.798;2022-11-15T16:03:10;10.23;;;6.05;;
27313;SDS011;14800;48.174;9.798;2022-11-15T16:05:36;9.82;;;7.22;;
27313;SDS011;14800;48.174;9.798;2022-11-15T16:08:01;12.18;;;7.28;;
27313;SDS011;14800;48.174;9.798;2022-11-15T16:10:28;14.77;;;8.10;;
27313;SDS011;14800;48.174;9.798;2022-11-15T16:12:56;11.63;;;7.15;;
27313;SDS011;14800;48.174;9.798;2022-11-15T16:15:23;8.80;;;6.40;;
27313;SDS011;14800;48.174;9.798;2022-11-15T16:17:51;10.35;;;6.03;;
27313;SDS011;14800;48.174;9.798;2022-11-15T16:20:40;9.82;;;5.63;;
27313;SDS011;14800;48.174;9.798;2022-11-15T16:23:11;7.85;;;6.20;;
27313;SDS011;14800;48.174;9.798;2022-11-15T16:25:39;61.95;;;8.02;;
27313;SDS011;14800;48.174;9.798;2022-11-15T16:28:11;12.52;;;6.55;;
27313;SDS011;14800;48.174;9.798;2022-11-15T16:30:45;13.10;;;6.90;;
27313;SDS011;14800;48.174;9.798;2022-11-15T16:33:11;11.05;;;6.18;;
27313;SDS011;14800;48.174;9.798;2022-11-15T16:35:37;13.90;;;6.65;;
27313;SDS011;14800;48.174;9.798;2022-11-15T16:38:03;8.88;;;6.53;;
27313;SDS011;14800;48.174;9.798;2022-11-15T16:40:29;9.75;;;6.18;;
27313;SDS011;14800;48.174;9.798;2022-11-15T16:42:57;8.88;;;5.60;;
27313;SDS011;14800;48.174;9.798;2022-11-15T16:45:24;12.23;;;6.22;;
27313;SDS011;14800;48.174;9.798;2022-11-15T16:47:50;8.25;;;5.72;;
27313;SDS011;14800;48.174;9.798;2022-11-15T16:50:18;6.82;;;5.43;;
27313;SDS011;14800;48.174;9.798;2022-11-15T16:52:48;8.35;;;5.18;;
27313;SDS011;14800;48.174;9.798;2022-11-15T16:55:18;9.75;;;5.65;;
27313;SDS011;14800;48.174;9.798;2022-11-15T16:57:45;9.15;;;6.22;;
27313;SDS011;14800;48.174;9.798;2022-11-15T17:00:11;9.30;;;6.60;;
27313;SDS011;14800;48.174;9.798;2022-11-15T17:02:37;7.97;;;6.30;;
27313;SDS011;14800;48.174;9.798;2022-11-15T17:05:03;9.73;;;6.43;;
27313;SDS011;14800;48.174;9.798;2022-11-15T17:07:29;11.23;;;6.95;;
27313;SDS011;14800;48.174;9.798;2022-11-15T17:09:54;8.65;;;7.22;;
27313;SDS011;14800;48.174;9.798;2022-11-15T17:12:20;11.23;;;7.10;;
27313;SDS011;14800;48.174;9.798;2022-11-15T17:14:45;9.13;;;6.80;;
27313;SDS011;14800;48.174;9.798;2022-11-15T17:17:11;9.15;;;6.32;;
27313;SDS011;14800;48.174;9.798;2022-11-15T17:19:37;10.10;;;8.43;;
27313;SDS011;14800;48.174;9.798;2022-11-15T17:22:02;11.90;;;8.63;;